sensor_id;sensor_type;location;lat;lon;timestamp;P1;durP1;ratioP1;P2;durP2;ratioP2
4450;SDS011;2238;50.180;9.230;2022-08-19T00:02:29;22.87;;;19.73;;
4450;SDS011;2238;50.180;9.230;2022-08-19T00:05:30;22.17;;;19.87;;
4450;SDS011;2238;50.180;9.230;2022-08-19T00:08:31;21.63;;;18.27;;
4450;SDS011;2238;50.180;9.230;2022-08-19T00:11:32;20.43;;;16.70;;
4450;SDS011;2238;50.180;9.230;2022-08-19T00:14:34;19.97;;;17.93;;
4450;SDS011;2238;50.180;9.230;2022-08-19T00:17:35;21.83;;;19.47;;
4450;SDS011;2238;50.180;9.230;2022-08-19T00:20:35;19.90;;;17.80;;
4450;SDS011;2238;50.180;9.230;2022-08-19T00:23:38;21.90;;;19.50;;
4450;SDS011;2238;50.180;9.230;2022-08-19T00:26:39;21.20;;;18.93;;
4450;SDS011;2238;50.180;9.230;2022-08-19T00:29:40;22.20;;;19.90;;
4450;SDS011;2238;50.180;9.230;2022-08-19T00:32:40;22.37;;;20.07;;
4450;SDS011;2238;50.180;9.230;2022-08-19T00:35:41;22.40;;;20.10;;
4450;SDS011;2238;50.180;9.230;2022-08-19T00:38:42;23.00;;;19.30;;
4450;SDS011;2238;50.180;9.230;2022-08-19T00:41:43;22.40;;;19.00;;
4450;SDS011;2238;50.180;9.230;2022-08-19T00:44:47;21.77;;;18.43;;
4450;SDS011;2238;50.180;9.230;2022-08-19T00:47:49;23.70;;;21.13;;
4450;SDS011;2238;50.180;9.230;2022-08-19T00:50:50;21.23;;;18.93;;
4450;SDS011;2238;50.180;9.230;2022-08-19T00:53:54;22.27;;;19.97;;
4450;SDS011;2238;50.180;9.230;2022-08-19T00:56:57;22.50;;;20.10;;
4450;SDS011;2238;50.180;9.230;2022-08-19T00:59:59;23.70;;;19.90;;
4450;SDS011;2238;50.180;9.230;2022-08-19T01:03:02;24.43;;;21.10;;
4450;SDS011;2238;50.180;9.230;2022-08-19T01:06:04;23.10;;;19.20;;
4450;SDS011;2238;50.180;9.230;2022-08-19T01:09:05;21.80;;;19.50;;
4450;SDS011;2238;50.180;9.230;2022-08-19T01:12:06;22.87;;;20.47;;
4450;SDS011;2238;50.180;9.230;2022-08-19T01:15:09;24.97;;;20.83;;
4450;SDS011;2238;50.180;9.230;2022-08-19T01:18:12;23.53;;;19.97;;
4450;SDS011;2238;50.180;9.230;2022-08-19T01:21:18;21.60;;;19.03;;
4450;SDS011;2238;50.180;9.230;2022-08-19T01:24:26;25.20;;;19.87;;
4450;SDS011;2238;50.180;9.230;2022-08-19T01:27:27;22.00;;;19.57;;
4450;SDS011;2238;50.180;9.230;2022-08-19T01:30:37;23.77;;;21.20;;
4450;SDS011;2238;50.180;9.230;2022-08-19T01:33:37;22.97;;;18.90;;
4450;SDS011;2238;50.180;9.230;2022-08-19T01:36:39;22.03;;;19.63;;
4450;SDS011;2238;50.180;9.230;2022-08-19T01:39:44;23.47;;;20.47;;
4450;SDS011;2238;50.180;9.230;2022-08-19T01:42:44;21.87;;;19.00;;
4450;SDS011;2238;50.180;9.230;2022-08-19T01:45:47;23.60;;;19.73;;
4450;SDS011;2238;50.180;9.230;2022-08-19T01:48:47;23.87;;;20.07;;
4450;SDS011;2238;50.180;9.230;2022-08-19T01:51:48;21.50;;;18.73;;
4450;SDS011;2238;50.180;9.230;2022-08-19T01:54:50;20.87;;;18.63;;
4450;SDS011;2238;50.180;9.230;2022-08-19T01:57:52;22.50;;;20.13;;
4450;SDS011;2238;50.180;9.230;2022-08-19T02:00:56;22.03;;;19.70;;
4450;SDS011;2238;50.180;9.230;2022-08-19T02:03:58;25.63;;;20.37;;
4450;SDS011;2238;50.180;9.230;2022-08-19T02:07:00;24.70;;;21.37;;
4450;SDS011;2238;50.180;9.230;2022-08-19T02:10:05;24.43;;;21.87;;
4450;SDS011;2238;50.180;9.230;2022-08-19T02:13:07;23.50;;;20.60;;
4450;SDS011;2238;50.180;9.230;2022-08-19T02:16:08;25.50;;;20.97;;
4450;SDS011;2238;50.180;9.230;2022-08-19T02:19:09;22.80;;;20.03;;
4450;SDS011;2238;50.180;9.230;2022-08-19T02:22:10;21.70;;;18.43;;
4450;SDS011;2238;50.180;9.230;2022-08-19T02:25:11;22.93;;;20.43;;
4450;SDS011;2238;50.180;9.230;2022-08-19T02:28:13;23.60;;;21.00;;
4450;SDS011;2238;50.180;9.230;2022-08-19T02:31:15;25.53;;;19.60;;
4450;SDS011;2238;50.180;9.230;2022-08-19T02:34:17;22.50;;;20.10;;
4450;SDS011;2238;50.180;9.230;2022-08-19T02:37:18;20.60;;;18.40;;
4450;SDS011;2238;50.180;9.230;2022-08-19T02:40:37;20.57;;;18.37;;
4450;SDS011;2238;50.180;9.230;2022-08-19T02:43:38;22.23;;;19.73;;
4450;SDS011;2238;50.180;9.230;2022-08-19T02:46:40;20.40;;;18.27;;
4450;SDS011;2238;50.180;9.230;2022-08-19T02:49:41;19.03;;;16.33;;
4450;SDS011;2238;50.180;9.230;2022-08-19T02:52:41;20.83;;;18.67;;
4450;SDS011;2238;50.180;9.230;2022-08-19T02:55:43;20.90;;;18.63;;
4450;SDS011;2238;50.180;9.230;2022-08-19T02:58:45;20.27;;;18.07;;
4450;SDS011;2238;50.180;9.230;2022-08-19T03:01:48;21.70;;;19.20;;
4450;SDS011;2238;50.180;9.230;2022-08-19T03:04:48;23.90;;;21.10;;
4450;SDS011;2238;50.180;9.230;2022-08-19T03:07:50;22.10;;;19.80;;
4450;SDS011;2238;50.180;9.230;2022-08-19T03:10:50;22.50;;;19.13;;
4450;SDS011;2238;50.180;9.230;2022-08-19T03:13:53;22.80;;;19.53;;
4450;SDS011;2238;50.180;9.230;2022-08-19T03:16:54;22.90;;;18.33;;
4450;SDS011;2238;50.180;9.230;2022-08-19T03:19:54;21.10;;;18.83;;
4450;SDS011;2238;50.180;9.230;2022-08-19T03:22:55;23.57;;;18.80;;
4450;SDS011;2238;50.180;9.230;2022-08-19T03:25:56;22.57;;;20.17;;
4450;SDS011;2238;50.180;9.230;2022-08-19T03:28:56;31.03;;;21.53;;
4450;SDS011;2238;50.180;9.230;2022-08-19T03:32:02;24.63;;;21.40;;
4450;SDS011;2238;50.180;9.230;2022-08-19T03:35:04;25.90;;;21.73;;
4450;SDS011;2238;50.180;9.230;2022-08-19T03:38:05;24.70;;;21.80;;
4450;SDS011;2238;50.180;9.230;2022-08-19T03:41:08;29.60;;;22.20;;
4450;SDS011;2238;50.180;9.230;2022-08-19T03:44:17;27.30;;;22.10;;
4450;SDS011;2238;50.180;9.230;2022-08-19T03:47:20;24.20;;;20.50;;
4450;SDS011;2238;50.180;9.230;2022-08-19T03:50:21;22.50;;;20.07;;
4450;SDS011;2238;50.180;9.230;2022-08-19T03:53:21;27.03;;;21.00;;
4450;SDS011;2238;50.180;9.230;2022-08-19T03:56:22;26.50;;;21.00;;
4450;SDS011;2238;50.180;9.230;2022-08-19T03:59:26;25.40;;;21.60;;
4450;SDS011;2238;50.180;9.230;2022-08-19T04:02:29;24.63;;;20.37;;
4450;SDS011;2238;50.180;9.230;2022-08-19T04:05:29;28.30;;;21.90;;
4450;SDS011;2238;50.180;9.230;2022-08-19T04:08:30;28.20;;;21.90;;
4450;SDS011;2238;50.180;9.230;2022-08-19T04:11:33;29.63;;;23.63;;
4450;SDS011;2238;50.180;9.230;2022-08-19T04:14:41;26.50;;;22.47;;
4450;SDS011;2238;50.180;9.230;2022-08-19T04:17:41;31.23;;;23.47;;
4450;SDS011;2238;50.180;9.230;2022-08-19T04:20:43;25.53;;;22.27;;
4450;SDS011;2238;50.180;9.230;2022-08-19T04:23:46;28.00;;;22.20;;
4450;SDS011;2238;50.180;9.230;2022-08-19T04:26:47;26.70;;;21.40;;
4450;SDS011;2238;50.180;9.230;2022-08-19T04:29:48;25.63;;;21.20;;
4450;SDS011;2238;50.180;9.230;2022-08-19T04:32:48;26.80;;;21.97;;
4450;SDS011;2238;50.180;9.230;2022-08-19T04:35:51;25.97;;;21.63;;
4450;SDS011;2238;50.180;9.230;2022-08-19T04:38:53;25.70;;;22.87;;
4450;SDS011;2238;50.180;9.230;2022-08-19T04:41:55;28.10;;;21.80;;
4450;SDS011;2238;50.180;9.230;2022-08-19T04:45:14;23.87;;;21.13;;
4450;SDS011;2238;50.180;9.230;2022-08-19T04:48:15;23.67;;;21.10;;
4450;SDS011;2238;50.180;9.230;2022-08-19T04:51:15;23.43;;;19.80;;
4450;SDS011;2238;50.180;9.230;2022-08-19T04:54:17;23.93;;;21.37;;
4450;SDS011;2238;50.180;9.230;2022-08-19T04:57:21;27.23;;;21.00;;
4450;SDS011;2238;50.180;9.230;2022-08-19T05:00:22;26.90;;;22.13;;
4450;SDS011;2238;50.180;9.230;2022-08-19T05:03:23;26.50;;;20.90;;
4450;SDS011;2238;50.180;9.230;2022-08-19T05:06:24;24.07;;;20.47;;
4450;SDS011;2238;50.180;9.230;2022-08-19T05:09:25;24.03;;;19.70;;
4450;SDS011;2238;50.180;9.230;2022-08-19T05:12:26;22.87;;;19.93;;
4450;SDS011;2238;50.180;9.230;2022-08-19T05:15:28;26.63;;;20.47;;
4450;SDS011;2238;50.180;9.230;2022-08-19T05:18:29;26.93;;;20.57;;
4450;SDS011;2238;50.180;9.230;2022-08-19T05:21:48;23.77;;;20.87;;
4450;SDS011;2238;50.180;9.230;2022-08-19T05:25:09;26.40;;;22.03;;
4450;SDS011;2238;50.180;9.230;2022-08-19T05:28:12;24.23;;;21.03;;
4450;SDS011;2238;50.180;9.230;2022-08-19T05:31:12;23.47;;;20.30;;
4450;SDS011;2238;50.180;9.230;2022-08-19T05:34:13;24.80;;;21.00;;
4450;SDS011;2238;50.180;9.230;2022-08-19T05:37:14;24.90;;;20.37;;
4450;SDS011;2238;50.180;9.230;2022-08-19T05:40:15;24.80;;;21.43;;
4450;SDS011;2238;50.180;9.230;2022-08-19T05:43:15;24.47;;;20.53;;
4450;SDS011;2238;50.180;9.230;2022-08-19T05:46:17;25.27;;;21.77;;
4450;SDS011;2238;50.180;9.230;2022-08-19T05:49:20;22.90;;;20.27;;
4450;SDS011;2238;50.180;9.230;2022-08-19T05:52:21;24.87;;;20.70;;
4450;SDS011;2238;50.180;9.230;2022-08-19T05:55:22;25.27;;;20.70;;
4450;SDS011;2238;50.180;9.230;2022-08-19T05:58:23;26.23;;;21.00;;
4450;SDS011;2238;50.180;9.230;2022-08-19T06:01:25;25.80;;;21.83;;
4450;SDS011;2238;50.180;9.230;2022-08-19T06:04:26;25.23;;;22.17;;
4450;SDS011;2238;50.180;9.230;2022-08-19T06:07:28;27.50;;;20.80;;
4450;SDS011;2238;50.180;9.230;2022-08-19T06:10:29;23.73;;;21.20;;
4450;SDS011;2238;50.180;9.230;2022-08-19T06:13:29;22.80;;;20.30;;
4450;SDS011;2238;50.180;9.230;2022-08-19T06:16:30;24.83;;;19.93;;
4450;SDS011;2238;50.180;9.230;2022-08-19T06:19:35;25.47;;;19.87;;
4450;SDS011;2238;50.180;9.230;2022-08-19T06:22:37;22.93;;;19.10;;
4450;SDS011;2238;50.180;9.230;2022-08-19T06:25:42;21.53;;;18.23;;
4450;SDS011;2238;50.180;9.230;2022-08-19T06:28:42;24.83;;;19.70;;
4450;SDS011;2238;50.180;9.230;2022-08-19T06:31:47;24.80;;;19.23;;
4450;SDS011;2238;50.180;9.230;2022-08-19T06:34:49;22.13;;;18.47;;
4450;SDS011;2238;50.180;9.230;2022-08-19T06:37:50;21.97;;;19.47;;
4450;SDS011;2238;50.180;9.230;2022-08-19T06:40:50;22.13;;;18.67;;
4450;SDS011;2238;50.180;9.230;2022-08-19T06:43:59;21.90;;;19.53;;
4450;SDS011;2238;50.180;9.230;2022-08-19T06:47:00;21.90;;;19.17;;
4450;SDS011;2238;50.180;9.230;2022-08-19T06:50:06;22.80;;;19.60;;
4450;SDS011;2238;50.180;9.230;2022-08-19T06:53:07;22.10;;;19.67;;
4450;SDS011;2238;50.180;9.230;2022-08-19T06:56:08;23.37;;;18.90;;
4450;SDS011;2238;50.180;9.230;2022-08-19T06:59:14;22.20;;;18.00;;
4450;SDS011;2238;50.180;9.230;2022-08-19T07:02:18;22.10;;;19.00;;
4450;SDS011;2238;50.180;9.230;2022-08-19T07:05:19;27.80;;;18.77;;
4450;SDS011;2238;50.180;9.230;2022-08-19T07:08:19;36.50;;;20.93;;
4450;SDS011;2238;50.180;9.230;2022-08-19T07:11:20;39.33;;;20.20;;
4450;SDS011;2238;50.180;9.230;2022-08-19T07:14:22;40.40;;;20.10;;
4450;SDS011;2238;50.180;9.230;2022-08-19T07:17:26;21.23;;;18.40;;
4450;SDS011;2238;50.180;9.230;2022-08-19T07:20:27;20.10;;;18.03;;
4450;SDS011;2238;50.180;9.230;2022-08-19T07:23:28;21.40;;;17.97;;
4450;SDS011;2238;50.180;9.230;2022-08-19T07:26:30;19.03;;;17.03;;
4450;SDS011;2238;50.180;9.230;2022-08-19T07:29:32;22.63;;;19.50;;
4450;SDS011;2238;50.180;9.230;2022-08-19T07:32:34;19.47;;;17.30;;
4450;SDS011;2238;50.180;9.230;2022-08-19T07:35:34;21.73;;;17.47;;
4450;SDS011;2238;50.180;9.230;2022-08-19T07:38:35;21.30;;;19.10;;
4450;SDS011;2238;50.180;9.230;2022-08-19T07:41:37;21.20;;;17.93;;
4450;SDS011;2238;50.180;9.230;2022-08-19T07:44:37;19.17;;;17.17;;
4450;SDS011;2238;50.180;9.230;2022-08-19T07:47:38;19.43;;;15.90;;
4450;SDS011;2238;50.180;9.230;2022-08-19T07:50:40;22.03;;;17.27;;
4450;SDS011;2238;50.180;9.230;2022-08-19T07:53:40;28.00;;;17.93;;
4450;SDS011;2238;50.180;9.230;2022-08-19T07:56:41;21.20;;;18.20;;
4450;SDS011;2238;50.180;9.230;2022-08-19T07:59:42;22.90;;;17.90;;
4450;SDS011;2238;50.180;9.230;2022-08-19T08:02:43;21.63;;;18.00;;
4450;SDS011;2238;50.180;9.230;2022-08-19T08:05:43;26.10;;;17.17;;
4450;SDS011;2238;50.180;9.230;2022-08-19T08:09:03;25.00;;;17.73;;
4450;SDS011;2238;50.180;9.230;2022-08-19T08:15:15;20.40;;;18.07;;
4450;SDS011;2238;50.180;9.230;2022-08-19T08:18:16;19.90;;;17.83;;
4450;SDS011;2238;50.180;9.230;2022-08-19T08:21:17;19.00;;;17.00;;
4450;SDS011;2238;50.180;9.230;2022-08-19T08:24:17;17.80;;;16.00;;
4450;SDS011;2238;50.180;9.230;2022-08-19T08:27:18;17.50;;;14.80;;
4450;SDS011;2238;50.180;9.230;2022-08-19T08:30:20;21.07;;;17.23;;
4450;SDS011;2238;50.180;9.230;2022-08-19T08:33:23;19.60;;;17.50;;
4450;SDS011;2238;50.180;9.230;2022-08-19T08:36:25;18.30;;;16.27;;
4450;SDS011;2238;50.180;9.230;2022-08-19T08:39:27;17.80;;;16.10;;
4450;SDS011;2238;50.180;9.230;2022-08-19T08:42:32;18.67;;;16.73;;
4450;SDS011;2238;50.180;9.230;2022-08-19T08:45:40;19.70;;;16.00;;
4450;SDS011;2238;50.180;9.230;2022-08-19T08:48:47;19.20;;;15.60;;
4450;SDS011;2238;50.180;9.230;2022-08-19T08:52:00;17.87;;;16.07;;
4450;SDS011;2238;50.180;9.230;2022-08-19T08:55:15;19.70;;;15.70;;
4450;SDS011;2238;50.180;9.230;2022-08-19T08:58:26;17.03;;;15.20;;
4450;SDS011;2238;50.180;9.230;2022-08-19T09:01:41;18.43;;;16.50;;
4450;SDS011;2238;50.180;9.230;2022-08-19T09:04:42;17.80;;;15.40;;
4450;SDS011;2238;50.180;9.230;2022-08-19T09:11:04;14.40;;;12.87;;
4450;SDS011;2238;50.180;9.230;2022-08-19T09:17:19;16.13;;;11.40;;
4450;SDS011;2238;50.180;9.230;2022-08-19T09:20:27;14.30;;;12.87;;
4450;SDS011;2238;50.180;9.230;2022-08-19T09:23:28;12.73;;;11.43;;
4450;SDS011;2238;50.180;9.230;2022-08-19T09:26:29;12.30;;;11.10;;
4450;SDS011;2238;50.180;9.230;2022-08-19T09:29:31;13.80;;;12.37;;
4450;SDS011;2238;50.180;9.230;2022-08-19T09:32:32;14.20;;;12.70;;
4450;SDS011;2238;50.180;9.230;2022-08-19T09:35:33;13.77;;;12.33;;
4450;SDS011;2238;50.180;9.230;2022-08-19T09:38:36;12.67;;;11.47;;
4450;SDS011;2238;50.180;9.230;2022-08-19T09:41:40;13.10;;;11.70;;
4450;SDS011;2238;50.180;9.230;2022-08-19T09:44:41;13.70;;;11.23;;
4450;SDS011;2238;50.180;9.230;2022-08-19T09:47:42;12.70;;;10.87;;
4450;SDS011;2238;50.180;9.230;2022-08-19T09:50:43;11.43;;;10.27;;
4450;SDS011;2238;50.180;9.230;2022-08-19T09:53:44;13.50;;;12.13;;
4450;SDS011;2238;50.180;9.230;2022-08-19T09:56:45;10.87;;;9.83;;
4450;SDS011;2238;50.180;9.230;2022-08-19T09:59:46;15.27;;;10.13;;
4450;SDS011;2238;50.180;9.230;2022-08-19T10:02:47;10.80;;;9.73;;
4450;SDS011;2238;50.180;9.230;2022-08-19T10:05:48;9.20;;;8.37;;
4450;SDS011;2238;50.180;9.230;2022-08-19T10:08:49;10.10;;;9.10;;
4450;SDS011;2238;50.180;9.230;2022-08-19T10:11:51;10.03;;;8.50;;
4450;SDS011;2238;50.180;9.230;2022-08-19T10:36:08;9.10;;;7.73;;
4450;SDS011;2238;50.180;9.230;2022-08-19T10:39:17;10.00;;;9.00;;
4450;SDS011;2238;50.180;9.230;2022-08-19T10:42:18;9.00;;;8.10;;
4450;SDS011;2238;50.180;9.230;2022-08-19T10:45:18;9.13;;;8.23;;
4450;SDS011;2238;50.180;9.230;2022-08-19T10:48:22;9.83;;;8.93;;
4450;SDS011;2238;50.180;9.230;2022-08-19T10:51:22;11.30;;;7.83;;
4450;SDS011;2238;50.180;9.230;2022-08-19T10:54:42;8.57;;;7.77;;
4450;SDS011;2238;50.180;9.230;2022-08-19T10:58:01;8.27;;;6.60;;
4450;SDS011;2238;50.180;9.230;2022-08-19T11:01:01;6.73;;;6.13;;
4450;SDS011;2238;50.180;9.230;2022-08-19T11:04:03;7.07;;;6.50;;
4450;SDS011;2238;50.180;9.230;2022-08-19T11:07:05;6.63;;;6.13;;
4450;SDS011;2238;50.180;9.230;2022-08-19T11:10:06;6.03;;;5.23;;
4450;SDS011;2238;50.180;9.230;2022-08-19T11:13:09;5.47;;;5.00;;
4450;SDS011;2238;50.180;9.230;2022-08-19T11:16:11;6.23;;;5.13;;
4450;SDS011;2238;50.180;9.230;2022-08-19T11:19:14;5.53;;;4.93;;
4450;SDS011;2238;50.180;9.230;2022-08-19T11:22:17;4.37;;;4.07;;
4450;SDS011;2238;50.180;9.230;2022-08-19T11:25:17;4.10;;;3.80;;
4450;SDS011;2238;50.180;9.230;2022-08-19T11:28:18;4.40;;;4.00;;
4450;SDS011;2238;50.180;9.230;2022-08-19T11:31:19;3.30;;;3.10;;
4450;SDS011;2238;50.180;9.230;2022-08-19T11:34:23;5.03;;;4.10;;
4450;SDS011;2238;50.180;9.230;2022-08-19T11:37:26;4.47;;;4.07;;
4450;SDS011;2238;50.180;9.230;2022-08-19T11:40:27;5.20;;;4.10;;
4450;SDS011;2238;50.180;9.230;2022-08-19T11:43:27;5.97;;;4.23;;
4450;SDS011;2238;50.180;9.230;2022-08-19T11:46:29;5.43;;;3.60;;
4450;SDS011;2238;50.180;9.230;2022-08-19T11:49:29;3.97;;;3.67;;
4450;SDS011;2238;50.180;9.230;2022-08-19T11:52:30;5.30;;;4.17;;
4450;SDS011;2238;50.180;9.230;2022-08-19T11:55:30;4.17;;;3.87;;
4450;SDS011;2238;50.180;9.230;2022-08-19T11:58:31;4.33;;;4.03;;
4450;SDS011;2238;50.180;9.230;2022-08-19T12:01:32;5.60;;;4.23;;
4450;SDS011;2238;50.180;9.230;2022-08-19T12:04:34;4.90;;;4.57;;
4450;SDS011;2238;50.180;9.230;2022-08-19T12:07:34;4.63;;;4.23;;
4450;SDS011;2238;50.180;9.230;2022-08-19T12:10:35;4.93;;;4.50;;
4450;SDS011;2238;50.180;9.230;2022-08-19T12:13:36;5.10;;;4.70;;
4450;SDS011;2238;50.180;9.230;2022-08-19T12:16:38;5.87;;;4.67;;
4450;SDS011;2238;50.180;9.230;2022-08-19T12:19:40;5.60;;;5.10;;
4450;SDS011;2238;50.180;9.230;2022-08-19T12:22:41;5.43;;;4.93;;
4450;SDS011;2238;50.180;9.230;2022-08-19T12:25:46;4.90;;;4.60;;
4450;SDS011;2238;50.180;9.230;2022-08-19T12:28:51;9.47;;;5.63;;
4450;SDS011;2238;50.180;9.230;2022-08-19T12:31:52;5.23;;;4.73;;
4450;SDS011;2238;50.180;9.230;2022-08-19T12:34:52;6.47;;;5.20;;
4450;SDS011;2238;50.180;9.230;2022-08-19T12:37:54;4.73;;;4.33;;
4450;SDS011;2238;50.180;9.230;2022-08-19T12:40:55;5.97;;;5.47;;
4450;SDS011;2238;50.180;9.230;2022-08-19T12:43:56;6.37;;;4.93;;
4450;SDS011;2238;50.180;9.230;2022-08-19T12:46:58;5.53;;;5.13;;
4450;SDS011;2238;50.180;9.230;2022-08-19T12:49:59;6.60;;;5.13;;
4450;SDS011;2238;50.180;9.230;2022-08-19T12:52:59;4.77;;;4.47;;
4450;SDS011;2238;50.180;9.230;2022-08-19T12:56:00;5.00;;;4.60;;
4450;SDS011;2238;50.180;9.230;2022-08-19T12:59:01;5.37;;;4.87;;
4450;SDS011;2238;50.180;9.230;2022-08-19T13:02:03;5.93;;;4.90;;
4450;SDS011;2238;50.180;9.230;2022-08-19T13:05:08;4.90;;;4.50;;
4450;SDS011;2238;50.180;9.230;2022-08-19T13:08:11;4.73;;;4.33;;
4450;SDS011;2238;50.180;9.230;2022-08-19T13:11:12;4.67;;;4.33;;
4450;SDS011;2238;50.180;9.230;2022-08-19T13:14:15;5.50;;;5.10;;
4450;SDS011;2238;50.180;9.230;2022-08-19T13:17:15;5.97;;;4.50;;
4450;SDS011;2238;50.180;9.230;2022-08-19T13:20:17;5.10;;;4.70;;
4450;SDS011;2238;50.180;9.230;2022-08-19T13:23:19;4.40;;;4.10;;
4450;SDS011;2238;50.180;9.230;2022-08-19T13:26:20;5.20;;;4.80;;
4450;SDS011;2238;50.180;9.230;2022-08-19T13:29:21;4.40;;;4.10;;
4450;SDS011;2238;50.180;9.230;2022-08-19T13:32:39;5.20;;;4.80;;
4450;SDS011;2238;50.180;9.230;2022-08-19T13:35:59;5.03;;;4.53;;
4450;SDS011;2238;50.180;9.230;2022-08-19T13:39:01;5.20;;;4.90;;
4450;SDS011;2238;50.180;9.230;2022-08-19T13:42:02;5.60;;;5.10;;
4450;SDS011;2238;50.180;9.230;2022-08-19T13:45:04;5.60;;;5.10;;
4450;SDS011;2238;50.180;9.230;2022-08-19T13:48:06;5.00;;;4.53;;
4450;SDS011;2238;50.180;9.230;2022-08-19T13:51:08;4.80;;;4.40;;
4450;SDS011;2238;50.180;9.230;2022-08-19T13:54:10;8.83;;;5.47;;
4450;SDS011;2238;50.180;9.230;2022-08-19T13:57:12;5.07;;;4.63;;
4450;SDS011;2238;50.180;9.230;2022-08-19T14:00:15;4.83;;;4.47;;
4450;SDS011;2238;50.180;9.230;2022-08-19T14:03:18;4.50;;;4.20;;
4450;SDS011;2238;50.180;9.230;2022-08-19T14:06:18;5.10;;;4.60;;
4450;SDS011;2238;50.180;9.230;2022-08-19T14:09:21;6.27;;;4.63;;
4450;SDS011;2238;50.180;9.230;2022-08-19T14:12:21;6.30;;;5.33;;
4450;SDS011;2238;50.180;9.230;2022-08-19T14:15:23;6.50;;;5.90;;
4450;SDS011;2238;50.180;9.230;2022-08-19T14:18:24;4.63;;;4.23;;
4450;SDS011;2238;50.180;9.230;2022-08-19T14:21:25;5.33;;;4.77;;
4450;SDS011;2238;50.180;9.230;2022-08-19T14:24:26;5.90;;;4.60;;
4450;SDS011;2238;50.180;9.230;2022-08-19T14:27:27;4.73;;;4.30;;
4450;SDS011;2238;50.180;9.230;2022-08-19T14:30:29;4.30;;;4.00;;
4450;SDS011;2238;50.180;9.230;2022-08-19T14:33:31;5.10;;;4.70;;
4450;SDS011;2238;50.180;9.230;2022-08-19T14:36:32;6.10;;;4.93;;
4450;SDS011;2238;50.180;9.230;2022-08-19T14:39:34;4.43;;;4.13;;
4450;SDS011;2238;50.180;9.230;2022-08-19T14:42:35;5.43;;;4.93;;
4450;SDS011;2238;50.180;9.230;2022-08-19T14:45:37;4.80;;;4.40;;
4450;SDS011;2238;50.180;9.230;2022-08-19T14:48:38;4.90;;;4.60;;
4450;SDS011;2238;50.180;9.230;2022-08-19T14:51:39;6.23;;;5.83;;
4450;SDS011;2238;50.180;9.230;2022-08-19T14:54:40;6.00;;;5.50;;
4450;SDS011;2238;50.180;9.230;2022-08-19T14:57:41;11.50;;;6.03;;
4450;SDS011;2238;50.180;9.230;2022-08-19T15:00:42;21.80;;;7.87;;
4450;SDS011;2238;50.180;9.230;2022-08-19T15:03:42;8.33;;;6.53;;
4450;SDS011;2238;50.180;9.230;2022-08-19T15:06:43;12.90;;;7.30;;
4450;SDS011;2238;50.180;9.230;2022-08-19T15:09:43;6.40;;;5.80;;
4450;SDS011;2238;50.180;9.230;2022-08-19T15:12:44;6.63;;;6.17;;
4450;SDS011;2238;50.180;9.230;2022-08-19T15:15:45;11.13;;;7.03;;
4450;SDS011;2238;50.180;9.230;2022-08-19T15:18:49;8.33;;;6.50;;
4450;SDS011;2238;50.180;9.230;2022-08-19T15:21:52;7.20;;;6.70;;
4450;SDS011;2238;50.180;9.230;2022-08-19T15:24:54;7.60;;;6.90;;
4450;SDS011;2238;50.180;9.230;2022-08-19T15:27:56;8.20;;;7.60;;
4450;SDS011;2238;50.180;9.230;2022-08-19T15:30:56;8.20;;;7.40;;
4450;SDS011;2238;50.180;9.230;2022-08-19T15:33:57;11.20;;;8.73;;
4450;SDS011;2238;50.180;9.230;2022-08-19T15:36:57;8.30;;;7.60;;
4450;SDS011;2238;50.180;9.230;2022-08-19T15:39:59;8.20;;;7.60;;
4450;SDS011;2238;50.180;9.230;2022-08-19T15:42:59;8.27;;;7.67;;
4450;SDS011;2238;50.180;9.230;2022-08-19T15:46:00;8.20;;;7.40;;
4450;SDS011;2238;50.180;9.230;2022-08-19T15:49:01;10.40;;;9.60;;
4450;SDS011;2238;50.180;9.230;2022-08-19T15:52:02;9.20;;;8.50;;
4450;SDS011;2238;50.180;9.230;2022-08-19T15:55:04;9.40;;;8.60;;
4450;SDS011;2238;50.180;9.230;2022-08-19T15:58:07;9.60;;;8.70;;
4450;SDS011;2238;50.180;9.230;2022-08-19T16:01:28;9.13;;;8.40;;
4450;SDS011;2238;50.180;9.230;2022-08-19T16:04:48;9.50;;;8.63;;
4450;SDS011;2238;50.180;9.230;2022-08-19T16:08:09;10.70;;;9.80;;
4450;SDS011;2238;50.180;9.230;2022-08-19T16:11:11;11.80;;;9.17;;
4450;SDS011;2238;50.180;9.230;2022-08-19T16:14:17;9.70;;;8.43;;
4450;SDS011;2238;50.180;9.230;2022-08-19T16:17:18;10.73;;;9.90;;
4450;SDS011;2238;50.180;9.230;2022-08-19T16:20:19;10.50;;;9.70;;
4450;SDS011;2238;50.180;9.230;2022-08-19T16:23:21;11.10;;;10.20;;
4450;SDS011;2238;50.180;9.230;2022-08-19T16:26:21;9.30;;;8.50;;
4450;SDS011;2238;50.180;9.230;2022-08-19T16:29:26;11.90;;;9.10;;
4450;SDS011;2238;50.180;9.230;2022-08-19T16:32:27;9.63;;;8.83;;
4450;SDS011;2238;50.180;9.230;2022-08-19T16:35:27;10.07;;;9.17;;
4450;SDS011;2238;50.180;9.230;2022-08-19T16:38:28;9.67;;;8.10;;
4450;SDS011;2238;50.180;9.230;2022-08-19T16:41:29;10.73;;;8.80;;
4450;SDS011;2238;50.180;9.230;2022-08-19T16:44:30;9.80;;;8.90;;
4450;SDS011;2238;50.180;9.230;2022-08-19T16:47:30;9.20;;;8.30;;
4450;SDS011;2238;50.180;9.230;2022-08-19T16:50:31;9.10;;;8.20;;
4450;SDS011;2238;50.180;9.230;2022-08-19T16:53:31;9.27;;;8.43;;
4450;SDS011;2238;50.180;9.230;2022-08-19T16:56:32;9.10;;;8.30;;
4450;SDS011;2238;50.180;9.230;2022-08-19T16:59:33;7.80;;;7.20;;
4450;SDS011;2238;50.180;9.230;2022-08-19T17:02:34;7.13;;;6.63;;
4450;SDS011;2238;50.180;9.230;2022-08-19T17:05:42;5.93;;;5.43;;
4450;SDS011;2238;50.180;9.230;2022-08-19T17:08:49;9.90;;;6.67;;
4450;SDS011;2238;50.180;9.230;2022-08-19T17:11:52;6.73;;;6.23;;
4450;SDS011;2238;50.180;9.230;2022-08-19T17:14:52;7.03;;;6.47;;
4450;SDS011;2238;50.180;9.230;2022-08-19T17:17:57;7.93;;;6.57;;
4450;SDS011;2238;50.180;9.230;2022-08-19T17:20:59;7.70;;;7.10;;
4450;SDS011;2238;50.180;9.230;2022-08-19T17:24:00;6.10;;;5.70;;
4450;SDS011;2238;50.180;9.230;2022-08-19T17:27:04;5.90;;;5.50;;
4450;SDS011;2238;50.180;9.230;2022-08-19T17:30:05;6.80;;;6.27;;
4450;SDS011;2238;50.180;9.230;2022-08-19T17:33:06;5.90;;;5.40;;
4450;SDS011;2238;50.180;9.230;2022-08-19T17:36:06;7.00;;;6.50;;
4450;SDS011;2238;50.180;9.230;2022-08-19T17:39:07;8.03;;;7.00;;
4450;SDS011;2238;50.180;9.230;2022-08-19T17:42:08;5.27;;;4.87;;
4450;SDS011;2238;50.180;9.230;2022-08-19T17:45:09;6.40;;;5.90;;
4450;SDS011;2238;50.180;9.230;2022-08-19T17:48:11;6.07;;;5.57;;
4450;SDS011;2238;50.180;9.230;2022-08-19T17:51:16;5.20;;;4.90;;
4450;SDS011;2238;50.180;9.230;2022-08-19T17:54:20;6.07;;;5.57;;
4450;SDS011;2238;50.180;9.230;2022-08-19T17:57:21;5.30;;;5.00;;
4450;SDS011;2238;50.180;9.230;2022-08-19T18:00:21;5.97;;;5.57;;
4450;SDS011;2238;50.180;9.230;2022-08-19T18:03:22;6.00;;;5.50;;
4450;SDS011;2238;50.180;9.230;2022-08-19T18:06:23;6.90;;;5.40;;
4450;SDS011;2238;50.180;9.230;2022-08-19T18:09:27;5.37;;;4.97;;
4450;SDS011;2238;50.180;9.230;2022-08-19T18:12:30;5.40;;;5.00;;
4450;SDS011;2238;50.180;9.230;2022-08-19T18:15:31;5.70;;;5.20;;
4450;SDS011;2238;50.180;9.230;2022-08-19T18:18:31;5.60;;;5.20;;
4450;SDS011;2238;50.180;9.230;2022-08-19T18:21:32;6.23;;;5.73;;
4450;SDS011;2238;50.180;9.230;2022-08-19T18:24:38;5.90;;;5.43;;
4450;SDS011;2238;50.180;9.230;2022-08-19T18:27:40;5.70;;;5.30;;
4450;SDS011;2238;50.180;9.230;2022-08-19T18:30:42;6.70;;;6.00;;
4450;SDS011;2238;50.180;9.230;2022-08-19T18:33:43;6.80;;;5.53;;
4450;SDS011;2238;50.180;9.230;2022-08-19T18:36:45;6.57;;;6.10;;
4450;SDS011;2238;50.180;9.230;2022-08-19T18:39:46;5.33;;;4.93;;
4450;SDS011;2238;50.180;9.230;2022-08-19T18:43:05;6.87;;;5.20;;
4450;SDS011;2238;50.180;9.230;2022-08-19T18:46:10;6.73;;;6.23;;
4450;SDS011;2238;50.180;9.230;2022-08-19T18:49:30;6.40;;;5.90;;
4450;SDS011;2238;50.180;9.230;2022-08-19T18:52:31;5.80;;;5.40;;
4450;SDS011;2238;50.180;9.230;2022-08-19T18:55:32;5.17;;;4.77;;
4450;SDS011;2238;50.180;9.230;2022-08-19T18:58:32;6.90;;;6.30;;
4450;SDS011;2238;50.180;9.230;2022-08-19T19:01:35;7.03;;;6.43;;
4450;SDS011;2238;50.180;9.230;2022-08-19T19:04:39;6.43;;;5.83;;
4450;SDS011;2238;50.180;9.230;2022-08-19T19:07:40;5.50;;;5.10;;